createdAt,value
2023-04-18T00:00:40.246Z,2.13
2023-04-18T00:03:10.116Z,2.15
2023-04-18T00:05:38.965Z,2.00
2023-04-18T00:08:06.911Z,2.30
2023-04-18T00:10:34.776Z,2.20
2023-04-18T00:13:02.147Z,2.00
2023-04-18T00:15:32.625Z,2.40
2023-04-18T00:18:05.035Z,2.35
2023-04-18T00:20:33.605Z,1.95
2023-04-18T00:23:02.633Z,2.20
2023-04-18T00:25:33.101Z,2.30
2023-04-18T00:28:03.340Z,2.85
2023-04-18T00:30:34.236Z,2.05
2023-04-18T00:33:07.003Z,2.78
2023-04-18T00:35:34.630Z,2.17
2023-04-18T00:38:02.989Z,2.83
2023-04-18T00:40:32.212Z,2.47
2023-04-18T00:43:01.297Z,2.45
2023-04-18T00:45:28.699Z,2.53
2023-04-18T00:47:58.356Z,2.70
2023-04-18T00:50:27.062Z,2.50
2023-04-18T00:52:56.402Z,2.72
2023-04-18T00:55:24.967Z,2.90
2023-04-18T00:57:58.770Z,2.80
2023-04-18T01:00:26.854Z,2.58
2023-04-18T01:02:56.176Z,3.30
2023-04-18T01:05:28.725Z,2.28
2023-04-18T01:08:01.519Z,2.85
2023-04-18T01:10:31.311Z,2.70
2023-04-18T01:13:15.565Z,3.45
2023-04-18T01:15:52.049Z,2.75
2023-04-18T01:18:23.860Z,3.20
2023-04-18T01:20:53.989Z,2.88
2023-04-18T01:23:21.777Z,3.55
2023-04-18T01:25:49.800Z,3.13
2023-04-18T01:28:19.978Z,3.17
2023-04-18T01:30:48.898Z,3.50
2023-04-18T01:33:16.651Z,3.17
2023-04-18T01:35:47.435Z,3.10
2023-04-18T01:38:15.979Z,3.60
2023-04-18T01:40:43.503Z,2.72
2023-04-18T01:43:10.830Z,5.07
2023-04-18T01:45:41.580Z,5.07
2023-04-18T01:48:12.705Z,3.33
2023-04-18T01:50:42.198Z,2.55
2023-04-18T01:53:11.134Z,2.55
2023-04-18T01:55:39.191Z,2.55
2023-04-18T01:58:07.778Z,2.80
2023-04-18T02:00:41.790Z,2.47
2023-04-18T02:03:10.192Z,2.77
2023-04-18T02:05:37.749Z,2.58
2023-04-18T02:08:07.422Z,2.72
2023-04-18T02:10:36.361Z,2.50
2023-04-18T02:13:05.055Z,3.05
2023-04-18T02:15:32.870Z,2.72
2023-04-18T02:18:03.673Z,2.60
2023-04-18T02:20:35.638Z,3.08
2023-04-18T02:23:04.182Z,2.35
2023-04-18T02:25:31.582Z,2.13
2023-04-18T02:27:59.822Z,2.35
2023-04-18T02:30:31.455Z,2.15
2023-04-18T02:33:02.812Z,2.75
2023-04-18T02:35:30.257Z,2.25
2023-04-18T02:37:57.539Z,2.45
2023-04-18T02:40:24.819Z,2.65
2023-04-18T02:42:52.189Z,3.25
2023-04-18T02:45:22.224Z,2.92
2023-04-18T02:47:55.212Z,2.97
2023-04-18T02:50:27.452Z,2.92
2023-04-18T02:52:56.906Z,3.58
2023-04-18T02:55:30.238Z,3.03
2023-04-18T02:58:00.152Z,3.20
2023-04-18T03:00:49.813Z,3.08
2023-04-18T03:03:48.053Z,5.13
2023-04-18T03:06:35.938Z,2.97
2023-04-18T03:09:21.303Z,3.03
2023-04-18T03:11:58.369Z,3.25
2023-04-18T03:14:31.270Z,3.20
2023-04-18T03:17:01.901Z,3.95
2023-04-18T03:19:35.784Z,2.97
2023-04-18T03:22:10.429Z,3.58
2023-04-18T03:24:45.851Z,3.33
2023-04-18T03:27:14.994Z,3.53
2023-04-18T03:29:44.578Z,3.35
2023-04-18T03:32:13.677Z,3.00
2023-04-18T03:35:01.866Z,3.15
2023-04-18T03:37:37.980Z,3.13
2023-04-18T03:40:18.499Z,3.40
2023-04-18T03:43:03.215Z,3.20
2023-04-18T03:45:34.388Z,3.15
2023-04-18T03:48:01.877Z,2.90
2023-04-18T03:50:31.454Z,2.92
2023-04-18T03:53:01.791Z,3.05
2023-04-18T03:55:34.123Z,3.20
2023-04-18T03:58:12.773Z,2.97
2023-04-18T04:00:48.685Z,2.95
2023-04-18T04:03:25.112Z,3.17
2023-04-18T04:05:55.576Z,3.78
2023-04-18T04:08:25.490Z,3.20
2023-04-18T04:11:02.689Z,2.65
2023-04-18T04:13:33.224Z,2.15
2023-04-18T04:16:08.719Z,2.70
2023-04-18T04:18:48.453Z,2.72
2023-04-18T04:21:21.148Z,3.08
2023-04-18T04:23:54.895Z,2.22
2023-04-18T04:26:33.878Z,3.40
2023-04-18T04:29:06.662Z,3.47
2023-04-18T04:31:39.445Z,3.42
2023-04-18T04:34:09.192Z,3.13
2023-04-18T04:36:43.418Z,2.78
2023-04-18T04:39:14.062Z,2.97
2023-04-18T04:42:07.543Z,3.10
2023-04-18T04:44:53.266Z,2.90
2023-04-18T04:47:27.272Z,3.70
2023-04-18T04:50:00.326Z,2.92
2023-04-18T04:52:43.344Z,2.80
2023-04-18T04:55:13.946Z,3.90
2023-04-18T04:57:45.224Z,3.15
2023-04-18T05:00:52.863Z,3.92
2023-04-18T05:03:22.654Z,4.15
2023-04-18T05:05:53.188Z,4.20
2023-04-18T05:08:22.765Z,3.90
2023-04-18T05:10:51.666Z,3.65
2023-04-18T05:13:22.197Z,3.92
2023-04-18T05:15:57.045Z,3.45
2023-04-18T05:18:24.539Z,3.83
2023-04-18T05:20:57.153Z,3.53
2023-04-18T05:23:27.839Z,3.65
2023-04-18T05:26:03.142Z,4.72
2023-04-18T05:28:32.334Z,4.80
2023-04-18T05:31:07.983Z,4.43
2023-04-18T05:33:56.102Z,3.90
2023-04-18T05:36:38.238Z,3.90
2023-04-18T05:39:13.214Z,3.60
2023-04-18T05:41:40.746Z,4.27
2023-04-18T05:44:11.228Z,4.00
2023-04-18T05:46:38.677Z,3.45
2023-04-18T05:49:06.027Z,3.15
2023-04-18T05:52:06.585Z,4.13
2023-04-18T05:54:42.049Z,3.83
2023-04-18T05:57:22.387Z,4.10
2023-04-18T06:02:53.635Z,3.70
2023-04-18T06:05:26.237Z,3.20
2023-04-18T06:07:53.928Z,3.15
2023-04-18T06:10:39.159Z,3.53
2023-04-18T06:13:12.186Z,3.22
2023-04-18T06:15:44.205Z,3.47
2023-04-18T06:18:13.876Z,3.83
2023-04-18T06:23:49.441Z,4.13
2023-04-18T06:26:32.875Z,3.60
2023-04-18T06:29:11.810Z,3.65
2023-04-18T06:32:05.338Z,3.40
2023-04-18T06:34:40.244Z,3.30
2023-04-18T06:37:36.320Z,3.10
2023-04-18T06:40:24.458Z,3.78
2023-04-18T06:43:07.458Z,4.05
2023-04-18T06:45:48.001Z,3.97
2023-04-18T06:48:20.924Z,3.80
2023-04-18T06:50:53.688Z,4.35
2023-04-18T06:53:30.722Z,4.37
2023-04-18T06:56:08.642Z,3.72
2023-04-18T06:58:53.047Z,5.05
2023-04-18T07:04:28.852Z,4.28
2023-04-18T07:06:59.500Z,4.85
2023-04-18T07:09:27.338Z,3.92
2023-04-18T07:12:06.016Z,4.63
2023-04-18T07:14:34.299Z,4.38
2023-04-18T07:17:08.265Z,3.92
2023-04-18T07:19:35.530Z,4.80
2023-04-18T07:22:02.811Z,4.15
2023-04-18T07:24:30.411Z,4.63
2023-04-18T07:26:57.870Z,5.05
2023-04-18T07:29:26.671Z,4.60
2023-04-18T07:34:49.849Z,4.63
2023-04-18T07:37:28.894Z,5.93
2023-04-18T07:39:56.021Z,5.50
2023-04-18T07:42:27.482Z,5.35
2023-04-18T07:45:13.293Z,5.70
2023-04-18T07:47:40.618Z,5.88
2023-04-18T07:50:08.885Z,5.75
2023-04-18T07:52:37.459Z,6.35
2023-04-18T07:55:18.125Z,6.10
2023-04-18T07:57:53.443Z,5.90
2023-04-18T08:00:21.057Z,4.95
2023-04-18T08:02:56.240Z,5.30
2023-04-18T08:05:30.119Z,4.30
2023-04-18T08:07:58.034Z,5.18
2023-04-18T08:10:26.000Z,5.28
2023-04-18T08:12:54.107Z,4.57
2023-04-18T08:15:22.562Z,4.88
2023-04-18T08:17:53.257Z,4.40
2023-04-18T08:20:26.074Z,5.28
2023-04-18T08:23:06.103Z,3.67
2023-04-18T08:25:36.820Z,4.13
2023-04-18T08:28:04.539Z,3.58
2023-04-18T08:30:34.802Z,3.97
2023-04-18T08:33:04.727Z,3.28
2023-04-18T08:35:32.156Z,2.90
2023-04-18T08:37:59.559Z,3.70
2023-04-18T08:40:32.862Z,3.90
2023-04-18T08:43:12.912Z,4.53
2023-04-18T08:46:00.217Z,4.65
2023-04-18T08:51:29.839Z,3.63
2023-04-18T08:53:57.668Z,4.27
2023-04-18T08:56:31.175Z,4.57
2023-04-18T08:59:01.696Z,5.63
2023-04-18T09:01:56.940Z,3.10
2023-04-18T09:04:41.258Z,2.83
2023-04-18T09:07:11.356Z,3.38
2023-04-18T09:09:56.523Z,2.30
2023-04-18T09:12:32.809Z,3.13
2023-04-18T09:15:14.489Z,2.70
2023-04-18T09:17:59.211Z,2.58
2023-04-18T09:20:41.749Z,3.05
2023-04-18T09:23:11.592Z,2.55
2023-04-18T09:25:46.871Z,2.80
2023-04-18T09:28:33.976Z,3.22
2023-04-18T09:33:15.882Z,2.85
2023-04-18T09:35:44.010Z,2.97
2023-04-18T09:38:11.265Z,2.67
2023-04-18T09:40:38.885Z,3.60
2023-04-18T09:43:21.742Z,4.55
2023-04-18T09:45:49.394Z,4.45
2023-04-18T09:48:16.554Z,4.50
2023-04-18T09:50:48.616Z,4.93
2023-04-18T09:53:32.920Z,5.53
2023-04-18T09:56:28.107Z,4.50
2023-04-18T10:03:23.603Z,4.38
2023-04-18T10:06:02.757Z,4.35
2023-04-18T10:08:38.179Z,3.50
2023-04-18T10:11:18.010Z,4.30
2023-04-18T10:14:06.354Z,2.83
2023-04-18T10:16:45.230Z,2.80
2023-04-18T10:19:38.582Z,2.92
2023-04-18T10:22:36.865Z,2.72
2023-04-18T10:25:12.337Z,2.47
2023-04-18T10:27:59.316Z,2.03
2023-04-18T10:37:19.500Z,1.92
2023-04-18T10:40:46.039Z,2.33
2023-04-18T10:43:22.561Z,2.67
2023-04-18T10:46:31.740Z,1.70
2023-04-18T10:49:45.760Z,1.70
2023-04-18T10:52:41.986Z,1.73
2023-04-18T10:55:17.813Z,2.30
2023-04-18T10:57:54.817Z,1.52
2023-04-18T11:00:24.036Z,2.10
2023-04-18T11:02:54.169Z,2.10
2023-04-18T11:05:34.206Z,2.28
2023-04-18T11:11:03.473Z,1.85
2023-04-18T11:13:39.362Z,1.75
2023-04-18T11:16:32.569Z,1.33
2023-04-18T11:19:00.524Z,1.70
2023-04-18T11:21:32.132Z,1.88
2023-04-18T11:24:08.054Z,1.77
2023-04-18T11:27:07.207Z,2.35
2023-04-18T11:29:54.761Z,2.17
2023-04-18T11:32:40.770Z,1.98
2023-04-18T11:35:27.701Z,1.80
2023-04-18T11:37:59.217Z,1.80
2023-04-18T11:40:54.593Z,1.80
2023-04-18T11:43:26.107Z,1.80
2023-04-18T11:45:59.632Z,1.40
2023-04-18T11:49:07.431Z,2.10
2023-04-18T11:52:08.034Z,1.92
2023-04-18T11:55:19.355Z,2.42
2023-04-18T11:58:04.729Z,1.95
2023-04-18T12:00:44.403Z,2.80
2023-04-18T12:03:40.797Z,2.08
2023-04-18T12:06:58.392Z,2.05
2023-04-18T12:10:00.732Z,1.95
2023-04-18T12:13:07.749Z,2.42
2023-04-18T12:15:50.808Z,1.90
2023-04-18T12:18:47.060Z,1.53
2023-04-18T12:24:35.793Z,2.45
2023-04-18T12:27:35.245Z,2.13
2023-04-18T12:30:51.046Z,2.40
2023-04-18T12:33:51.454Z,2.90
2023-04-18T12:36:24.204Z,1.83
2023-04-18T12:39:11.730Z,1.53
2023-04-18T12:41:42.233Z,1.77
2023-04-18T12:44:35.927Z,1.92
2023-04-18T12:47:09.194Z,2.20
2023-04-18T12:53:03.100Z,1.92
2023-04-18T12:55:56.729Z,1.70
2023-04-18T12:58:42.540Z,2.20
2023-04-18T13:01:34.452Z,2.55
2023-04-18T13:04:18.177Z,1.90
2023-04-18T13:06:56.503Z,1.73
2023-04-18T13:09:46.654Z,2.25
2023-04-18T13:12:37.323Z,1.70
2023-04-18T13:15:30.729Z,1.73
2023-04-18T13:18:18.272Z,2.00
2023-04-18T13:21:09.702Z,1.98
2023-04-18T13:23:46.127Z,1.92
2023-04-18T13:26:30.707Z,1.92
2023-04-18T13:29:28.372Z,1.60
2023-04-18T13:32:31.838Z,1.95
2023-04-18T13:35:23.473Z,1.92
2023-04-18T13:38:12.553Z,2.17
2023-04-18T13:41:10.966Z,1.73
2023-04-18T13:44:00.056Z,1.65
2023-04-18T13:47:06.402Z,1.95
2023-04-18T13:49:57.004Z,1.50
2023-04-18T13:52:56.230Z,3.38
2023-04-18T13:55:34.955Z,3.63
2023-04-18T13:58:28.032Z,2.17
2023-04-18T14:01:22.261Z,2.00
2023-04-18T14:04:11.413Z,1.95
2023-04-18T14:06:50.426Z,2.22
2023-04-18T14:09:30.351Z,2.20
2023-04-18T14:12:14.383Z,2.45
2023-04-18T14:18:01.323Z,1.85
2023-04-18T14:20:37.467Z,3.17
2023-04-18T14:26:40.580Z,2.15
2023-04-18T14:32:41.460Z,2.15
2023-04-18T14:35:20.825Z,2.58
2023-04-18T14:38:19.555Z,2.50
2023-04-18T14:41:15.544Z,1.80
2023-04-18T14:44:07.581Z,2.20
2023-04-18T14:47:08.050Z,2.17
2023-04-18T14:50:13.043Z,2.00
2023-04-18T14:53:15.688Z,2.25
2023-04-18T14:56:13.887Z,2.28
2023-04-18T14:59:00.282Z,1.77
2023-04-18T15:01:52.578Z,2.42
2023-04-18T15:04:50.529Z,2.17
2023-04-18T15:07:38.030Z,2.33
2023-04-18T15:10:37.614Z,1.95
2023-04-18T15:13:25.586Z,2.35
2023-04-18T15:16:12.850Z,2.00
2023-04-18T15:18:50.997Z,1.70
2023-04-18T15:21:43.582Z,2.00
2023-04-18T15:24:38.824Z,2.53
2023-04-18T15:27:41.832Z,1.95
2023-04-18T15:30:29.193Z,2.17
2023-04-18T15:33:15.975Z,2.05
2023-04-18T15:36:14.866Z,1.90
2023-04-18T15:39:26.747Z,2.20
2023-04-18T15:42:24.959Z,2.28
2023-04-18T15:45:16.727Z,2.10
2023-04-18T15:51:09.382Z,2.10
2023-04-18T15:54:16.299Z,2.53
2023-04-18T15:57:17.372Z,2.45
2023-04-18T15:59:54.860Z,2.13
2023-04-18T16:02:29.866Z,2.55
2023-04-18T16:05:28.695Z,2.10
2023-04-18T16:08:27.503Z,2.28
2023-04-18T16:11:20.252Z,2.45
2023-04-18T16:13:51.043Z,2.78
2023-04-18T16:16:28.643Z,1.95
2023-04-18T16:19:06.044Z,2.25
2023-04-18T16:21:41.784Z,2.20
2023-04-18T16:24:31.362Z,2.03
2023-04-18T16:27:22.188Z,2.22
2023-04-18T16:30:13.429Z,1.88
2023-04-18T16:32:52.148Z,2.45
2023-04-18T16:35:47.360Z,2.83
2023-04-18T16:38:48.434Z,2.47
2023-04-18T16:41:50.112Z,2.20
2023-04-18T16:44:45.565Z,1.77
2023-04-18T16:50:40.914Z,2.17
2023-04-18T16:53:15.784Z,2.22
2023-04-18T16:56:01.173Z,1.88
2023-04-18T16:58:36.146Z,2.28
2023-04-18T17:01:16.965Z,1.83
2023-04-18T17:03:56.527Z,2.30
2023-04-18T17:06:59.195Z,2.10
2023-04-18T17:09:42.922Z,3.20
2023-04-18T17:15:12.805Z,2.08
2023-04-18T17:18:01.457Z,2.10
2023-04-18T17:20:48.529Z,2.08
2023-04-18T17:23:30.357Z,2.00
2023-04-18T17:26:07.301Z,2.05
2023-04-18T17:28:59.367Z,2.90
2023-04-18T17:32:02.482Z,2.47
2023-04-18T17:35:06.736Z,1.73
2023-04-18T17:37:56.545Z,2.47
2023-04-18T17:41:05.088Z,2.10
2023-04-18T17:43:58.488Z,2.38
2023-04-18T17:47:01.639Z,2.08
2023-04-18T17:49:52.466Z,2.83
2023-04-18T17:53:04.693Z,2.67
2023-04-18T17:55:59.535Z,2.53
2023-04-18T17:58:56.550Z,3.13
2023-04-18T18:01:35.374Z,3.13
2023-04-18T18:04:30.677Z,2.63
2023-04-18T18:07:13.208Z,2.15
2023-04-18T18:10:25.981Z,2.50
2023-04-18T18:13:14.329Z,2.78
2023-04-18T18:16:07.355Z,2.80
2023-04-18T18:18:57.084Z,2.50
2023-04-18T18:21:56.122Z,2.65
2023-04-18T18:24:53.035Z,2.67
2023-04-18T18:27:50.371Z,2.78
2023-04-18T18:30:46.510Z,3.00
2023-04-18T18:33:22.804Z,2.85
2023-04-18T18:36:13.247Z,2.40
2023-04-18T18:39:04.485Z,2.58
2023-04-18T18:41:50.159Z,2.67
2023-04-18T18:44:35.945Z,2.38
2023-04-18T18:47:21.643Z,2.92
2023-04-18T18:50:12.970Z,2.38
2023-04-18T18:53:14.715Z,2.92
2023-04-18T18:55:53.744Z,2.67
2023-04-18T18:58:46.146Z,2.50
2023-04-18T19:01:16.573Z,2.70
2023-04-18T19:04:33.384Z,2.88
2023-04-18T19:07:23.603Z,2.47
2023-04-18T19:10:05.393Z,2.85
2023-04-18T19:12:47.250Z,3.05
2023-04-18T19:15:31.540Z,3.15
2023-04-18T19:18:00.976Z,2.58
2023-04-18T19:21:07.441Z,3.00
2023-04-18T19:23:58.150Z,2.90
2023-04-18T19:27:10.138Z,3.47
2023-04-18T19:29:50.838Z,3.13
2023-04-18T19:32:48.882Z,4.05
2023-04-18T19:35:45.640Z,4.55
2023-04-18T19:38:46.178Z,4.72
2023-04-18T19:41:25.095Z,3.70
2023-04-18T19:43:59.844Z,4.07
2023-04-18T19:46:58.431Z,4.35
2023-04-18T19:49:38.849Z,3.97
2023-04-18T19:52:27.227Z,3.95
2023-04-18T19:55:03.211Z,3.85
2023-04-18T19:57:58.974Z,3.75
2023-04-18T20:00:43.788Z,3.80
2023-04-18T20:03:12.024Z,3.67
2023-04-18T20:05:46.443Z,3.60
2023-04-18T20:08:26.585Z,3.38
2023-04-18T20:13:58.191Z,2.95
2023-04-18T20:17:04.973Z,3.15
2023-04-18T20:19:57.494Z,2.70
2023-04-18T20:22:54.426Z,2.70
2023-04-18T20:25:34.979Z,3.00
2023-04-18T20:28:23.205Z,2.70
2023-04-18T20:30:56.570Z,2.72
2023-04-18T20:33:23.879Z,3.13
2023-04-18T20:36:08.968Z,3.03
2023-04-18T20:38:49.329Z,3.22
2023-04-18T20:41:52.726Z,2.55
2023-04-18T20:44:47.510Z,2.42
2023-04-18T20:47:21.096Z,2.75
2023-04-18T20:49:59.728Z,3.00
2023-04-18T20:52:47.892Z,2.42
2023-04-18T20:58:06.231Z,2.53
2023-04-18T21:00:34.021Z,2.72
2023-04-18T21:03:14.199Z,2.72
2023-04-18T21:05:47.056Z,3.33
2023-04-18T21:08:19.760Z,3.47
2023-04-18T21:10:46.996Z,4.00
2023-04-18T21:13:14.270Z,4.93
2023-04-18T21:15:44.756Z,5.07
2023-04-18T21:18:12.222Z,4.88
2023-04-18T21:21:04.754Z,5.47
2023-04-18T21:26:37.404Z,6.25
2023-04-18T21:29:12.416Z,4.85
2023-04-18T21:31:56.302Z,5.53
2023-04-18T21:34:24.090Z,4.22
2023-04-18T21:36:54.072Z,4.85
2023-04-18T21:39:25.867Z,4.90
2023-04-18T21:41:56.104Z,4.30
2023-04-18T21:44:26.798Z,5.30
2023-04-18T21:46:57.583Z,4.60
2023-04-18T21:49:40.378Z,4.38
2023-04-18T21:52:14.085Z,4.80
2023-04-18T21:54:43.999Z,5.13
2023-04-18T21:57:20.346Z,5.28
2023-04-18T22:00:01.607Z,5.50
2023-04-18T22:05:43.517Z,5.32
2023-04-18T22:08:11.165Z,5.50
2023-04-18T22:10:47.359Z,5.32
2023-04-18T22:13:33.880Z,5.10
2023-04-18T22:16:11.517Z,5.30
2023-04-18T22:18:55.143Z,6.47
2023-04-18T22:21:27.037Z,5.40
2023-04-18T22:24:02.102Z,5.15
2023-04-18T22:26:48.080Z,6.40
2023-04-18T22:29:27.417Z,5.60
2023-04-18T22:32:09.238Z,5.53
2023-04-18T22:35:06.948Z,6.95
2023-04-18T22:37:49.284Z,5.13
2023-04-18T22:40:33.058Z,5.90
2023-04-18T22:43:20.379Z,5.55
2023-04-18T22:45:50.503Z,5.88
2023-04-18T22:48:18.339Z,5.70
2023-04-18T22:50:49.739Z,5.50
2023-04-18T22:53:17.692Z,6.15
2023-04-18T22:55:46.334Z,6.15
2023-04-18T22:58:16.714Z,5.50
2023-04-18T23:00:50.022Z,6.22
2023-04-18T23:03:19.412Z,5.60
2023-04-18T23:05:49.084Z,5.45
2023-04-18T23:08:18.938Z,6.22
2023-04-18T23:10:46.227Z,5.43
2023-04-18T23:13:17.889Z,5.45
2023-04-18T23:15:53.679Z,5.43
2023-04-18T23:18:22.445Z,4.75
2023-04-18T23:20:49.633Z,5.47
2023-04-18T23:23:16.818Z,5.55
2023-04-18T23:25:44.484Z,5.43
2023-04-18T23:28:14.312Z,5.40
2023-04-18T23:30:44.675Z,5.32
2023-04-18T23:33:16.537Z,5.45
2023-04-18T23:35:43.856Z,6.30
2023-04-18T23:38:11.130Z,5.60
2023-04-18T23:40:38.533Z,5.72
2023-04-18T23:43:10.617Z,5.13
2023-04-18T23:45:40.125Z,5.90
2023-04-18T23:48:07.384Z,5.00
2023-04-18T23:50:36.820Z,5.90
2023-04-18T23:53:05.981Z,5.38
2023-04-18T23:55:33.270Z,5.28
2023-04-18T23:58:06.629Z,5.20
